sensor_id;sensor_type;location;lat;lon;timestamp;temperature;humidity
7700;DHT22;3892;47.794;19.126;2023-02-28T00:00:24;8.50;29.00
7700;DHT22;3892;47.794;19.126;2023-02-28T00:02:53;8.50;29.10
7700;DHT22;3892;47.794;19.126;2023-02-28T00:05:22;8.60;29.00
7700;DHT22;3892;47.794;19.126;2023-02-28T00:07:50;8.60;29.10
7700;DHT22;3892;47.794;19.126;2023-02-28T00:10:18;8.70;29.20
7700;DHT22;3892;47.794;19.126;2023-02-28T00:12:46;8.70;29.10
7700;DHT22;3892;47.794;19.126;2023-02-28T00:15:13;8.70;29.10
7700;DHT22;3892;47.794;19.126;2023-02-28T00:17:41;8.80;29.20
7700;DHT22;3892;47.794;19.126;2023-02-28T00:20:11;8.80;29.20
7700;DHT22;3892;47.794;19.126;2023-02-28T00:22:42;8.90;29.30
7700;DHT22;3892;47.794;19.126;2023-02-28T00:25:10;8.90;29.20
7700;DHT22;3892;47.794;19.126;2023-02-28T00:27:38;8.90;29.10
7700;DHT22;3892;47.794;19.126;2023-02-28T00:30:08;8.90;29.00
7700;DHT22;3892;47.794;19.126;2023-02-28T00:32:37;9.00;29.10
7700;DHT22;3892;47.794;19.126;2023-02-28T00:35:05;9.00;29.20
7700;DHT22;3892;47.794;19.126;2023-02-28T00:37:34;9.00;29.20
7700;DHT22;3892;47.794;19.126;2023-02-28T00:40:02;9.00;29.10
7700;DHT22;3892;47.794;19.126;2023-02-28T00:42:32;9.00;29.00
7700;DHT22;3892;47.794;19.126;2023-02-28T00:44:59;9.00;28.90
7700;DHT22;3892;47.794;19.126;2023-02-28T00:47:26;9.00;29.00
7700;DHT22;3892;47.794;19.126;2023-02-28T00:49:54;9.00;29.00
7700;DHT22;3892;47.794;19.126;2023-02-28T00:52:21;9.00;29.10
7700;DHT22;3892;47.794;19.126;2023-02-28T00:54:49;9.00;29.10
7700;DHT22;3892;47.794;19.126;2023-02-28T00:57:16;9.00;29.10
7700;DHT22;3892;47.794;19.126;2023-02-28T00:59:43;9.00;29.00
7700;DHT22;3892;47.794;19.126;2023-02-28T01:02:10;9.00;29.10
7700;DHT22;3892;47.794;19.126;2023-02-28T01:04:37;9.00;29.10
7700;DHT22;3892;47.794;19.126;2023-02-28T01:07:04;9.00;29.20
7700;DHT22;3892;47.794;19.126;2023-02-28T01:09:32;9.00;29.00
7700;DHT22;3892;47.794;19.126;2023-02-28T01:12:00;9.00;28.80
7700;DHT22;3892;47.794;19.126;2023-02-28T01:14:27;9.00;28.90
7700;DHT22;3892;47.794;19.126;2023-02-28T01:16:54;8.90;28.70
7700;DHT22;3892;47.794;19.126;2023-02-28T01:19:21;9.00;28.90
7700;DHT22;3892;47.794;19.126;2023-02-28T01:21:48;8.90;28.80
7700;DHT22;3892;47.794;19.126;2023-02-28T01:24:15;8.90;28.70
7700;DHT22;3892;47.794;19.126;2023-02-28T01:26:44;8.90;28.80
7700;DHT22;3892;47.794;19.126;2023-02-28T01:29:12;8.90;28.80
7700;DHT22;3892;47.794;19.126;2023-02-28T01:31:39;8.90;28.80
7700;DHT22;3892;47.794;19.126;2023-02-28T01:34:07;8.90;28.90
7700;DHT22;3892;47.794;19.126;2023-02-28T01:36:34;8.90;28.90
7700;DHT22;3892;47.794;19.126;2023-02-28T01:39:02;8.90;28.60
7700;DHT22;3892;47.794;19.126;2023-02-28T01:41:31;8.90;28.60
7700;DHT22;3892;47.794;19.126;2023-02-28T01:44:03;8.90;28.70
7700;DHT22;3892;47.794;19.126;2023-02-28T01:46:34;8.90;28.60
7700;DHT22;3892;47.794;19.126;2023-02-28T01:49:08;8.90;28.60
7700;DHT22;3892;47.794;19.126;2023-02-28T01:51:40;8.90;28.60
7700;DHT22;3892;47.794;19.126;2023-02-28T01:54:14;9.00;28.60
7700;DHT22;3892;47.794;19.126;2023-02-28T01:56:45;9.00;28.60
7700;DHT22;3892;47.794;19.126;2023-02-28T01:59:16;9.00;28.70
7700;DHT22;3892;47.794;19.126;2023-02-28T02:01:49;9.00;28.60
7700;DHT22;3892;47.794;19.126;2023-02-28T02:04:18;9.00;28.60
7700;DHT22;3892;47.794;19.126;2023-02-28T02:06:47;9.00;28.80
7700;DHT22;3892;47.794;19.126;2023-02-28T02:09:15;9.10;28.90
7700;DHT22;3892;47.794;19.126;2023-02-28T02:11:43;9.00;28.90
7700;DHT22;3892;47.794;19.126;2023-02-28T02:14:24;9.10;29.10
7700;DHT22;3892;47.794;19.126;2023-02-28T02:17:04;9.10;29.10
7700;DHT22;3892;47.794;19.126;2023-02-28T02:26:15;9.10;29.00
7700;DHT22;3892;47.794;19.126;2023-02-28T02:29:08;9.10;28.90
7700;DHT22;3892;47.794;19.126;2023-02-28T02:32:04;9.10;28.90
7700;DHT22;3892;47.794;19.126;2023-02-28T02:34:46;9.10;28.80
7700;DHT22;3892;47.794;19.126;2023-02-28T02:37:29;9.10;28.70
7700;DHT22;3892;47.794;19.126;2023-02-28T02:40:04;9.10;28.30
7700;DHT22;3892;47.794;19.126;2023-02-28T02:42:39;9.10;28.10
7700;DHT22;3892;47.794;19.126;2023-02-28T02:45:12;9.10;28.00
7700;DHT22;3892;47.794;19.126;2023-02-28T02:47:42;9.10;28.00
7700;DHT22;3892;47.794;19.126;2023-02-28T02:50:15;9.00;28.20
7700;DHT22;3892;47.794;19.126;2023-02-28T02:52:48;9.00;28.10
7700;DHT22;3892;47.794;19.126;2023-02-28T02:55:18;9.10;28.30
7700;DHT22;3892;47.794;19.126;2023-02-28T02:57:50;9.10;28.20
7700;DHT22;3892;47.794;19.126;2023-02-28T03:00:22;9.10;28.20
7700;DHT22;3892;47.794;19.126;2023-02-28T03:02:52;9.10;28.30
7700;DHT22;3892;47.794;19.126;2023-02-28T03:05:25;9.10;28.10
7700;DHT22;3892;47.794;19.126;2023-02-28T03:07:52;9.10;27.80
7700;DHT22;3892;47.794;19.126;2023-02-28T03:10:31;9.10;27.60
7700;DHT22;3892;47.794;19.126;2023-02-28T03:13:31;9.10;27.60
7700;DHT22;3892;47.794;19.126;2023-02-28T03:16:18;9.10;27.90
7700;DHT22;3892;47.794;19.126;2023-02-28T03:18:54;9.10;28.40
7700;DHT22;3892;47.794;19.126;2023-02-28T03:21:32;9.00;28.50
7700;DHT22;3892;47.794;19.126;2023-02-28T03:24:05;8.90;28.60
7700;DHT22;3892;47.794;19.126;2023-02-28T03:26:36;8.90;28.60
7700;DHT22;3892;47.794;19.126;2023-02-28T03:29:09;9.00;28.70
7700;DHT22;3892;47.794;19.126;2023-02-28T03:31:46;9.00;28.60
7700;DHT22;3892;47.794;19.126;2023-02-28T03:34:22;9.00;28.60
7700;DHT22;3892;47.794;19.126;2023-02-28T03:36:55;9.10;28.70
7700;DHT22;3892;47.794;19.126;2023-02-28T03:39:27;9.10;28.50
7700;DHT22;3892;47.794;19.126;2023-02-28T03:41:58;9.10;28.50
7700;DHT22;3892;47.794;19.126;2023-02-28T03:44:30;9.10;28.50
7700;DHT22;3892;47.794;19.126;2023-02-28T03:47:02;9.20;28.70
7700;DHT22;3892;47.794;19.126;2023-02-28T03:49:32;9.20;28.60
7700;DHT22;3892;47.794;19.126;2023-02-28T03:52:06;9.10;28.60
7700;DHT22;3892;47.794;19.126;2023-02-28T03:54:39;9.20;28.70
7700;DHT22;3892;47.794;19.126;2023-02-28T03:57:12;9.20;28.60
7700;DHT22;3892;47.794;19.126;2023-02-28T03:59:43;9.20;28.70
7700;DHT22;3892;47.794;19.126;2023-02-28T04:02:11;9.20;28.70
7700;DHT22;3892;47.794;19.126;2023-02-28T04:04:38;9.20;28.70
7700;DHT22;3892;47.794;19.126;2023-02-28T04:07:15;9.20;28.80
7700;DHT22;3892;47.794;19.126;2023-02-28T04:09:43;9.20;29.00
7700;DHT22;3892;47.794;19.126;2023-02-28T04:12:10;9.20;29.00
7700;DHT22;3892;47.794;19.126;2023-02-28T04:14:37;9.30;29.00
7700;DHT22;3892;47.794;19.126;2023-02-28T04:17:04;9.30;28.90
7700;DHT22;3892;47.794;19.126;2023-02-28T04:19:31;9.30;29.00
7700;DHT22;3892;47.794;19.126;2023-02-28T04:21:58;9.30;29.10
7700;DHT22;3892;47.794;19.126;2023-02-28T04:24:28;9.30;29.10
7700;DHT22;3892;47.794;19.126;2023-02-28T04:26:56;9.30;29.00
7700;DHT22;3892;47.794;19.126;2023-02-28T04:29:25;9.30;28.90
7700;DHT22;3892;47.794;19.126;2023-02-28T04:31:53;9.30;28.80
7700;DHT22;3892;47.794;19.126;2023-02-28T04:34:20;9.30;28.80
7700;DHT22;3892;47.794;19.126;2023-02-28T04:36:48;9.30;28.70
7700;DHT22;3892;47.794;19.126;2023-02-28T04:39:16;9.30;28.80
7700;DHT22;3892;47.794;19.126;2023-02-28T04:41:45;9.30;28.80
7700;DHT22;3892;47.794;19.126;2023-02-28T04:44:13;9.30;29.00
7700;DHT22;3892;47.794;19.126;2023-02-28T04:46:40;9.30;29.00
7700;DHT22;3892;47.794;19.126;2023-02-28T04:49:08;9.30;28.90
7700;DHT22;3892;47.794;19.126;2023-02-28T04:51:35;9.30;28.70
7700;DHT22;3892;47.794;19.126;2023-02-28T04:54:02;9.30;28.60
7700;DHT22;3892;47.794;19.126;2023-02-28T04:56:29;9.30;28.70
7700;DHT22;3892;47.794;19.126;2023-02-28T04:58:57;9.30;28.60
7700;DHT22;3892;47.794;19.126;2023-02-28T05:01:26;9.30;28.40
7700;DHT22;3892;47.794;19.126;2023-02-28T05:03:55;9.40;28.30
7700;DHT22;3892;47.794;19.126;2023-02-28T05:06:25;9.40;28.30
7700;DHT22;3892;47.794;19.126;2023-02-28T05:08:53;9.30;28.30
7700;DHT22;3892;47.794;19.126;2023-02-28T05:11:22;9.40;28.50
7700;DHT22;3892;47.794;19.126;2023-02-28T05:13:50;9.30;28.50
7700;DHT22;3892;47.794;19.126;2023-02-28T05:16:19;9.30;28.70
7700;DHT22;3892;47.794;19.126;2023-02-28T05:18:46;9.40;28.70
7700;DHT22;3892;47.794;19.126;2023-02-28T05:21:32;9.40;28.70
7700;DHT22;3892;47.794;19.126;2023-02-28T05:24:01;9.40;28.80
7700;DHT22;3892;47.794;19.126;2023-02-28T05:26:29;9.40;28.90
7700;DHT22;3892;47.794;19.126;2023-02-28T05:28:56;9.40;28.90
7700;DHT22;3892;47.794;19.126;2023-02-28T05:31:24;9.40;28.80
7700;DHT22;3892;47.794;19.126;2023-02-28T05:33:51;9.40;28.60
7700;DHT22;3892;47.794;19.126;2023-02-28T05:36:19;9.40;28.30
7700;DHT22;3892;47.794;19.126;2023-02-28T05:38:47;9.40;28.40
7700;DHT22;3892;47.794;19.126;2023-02-28T05:41:15;9.40;28.40
7700;DHT22;3892;47.794;19.126;2023-02-28T05:43:42;9.40;28.30
7700;DHT22;3892;47.794;19.126;2023-02-28T05:46:10;9.40;28.00
7700;DHT22;3892;47.794;19.126;2023-02-28T05:48:40;9.40;27.90
7700;DHT22;3892;47.794;19.126;2023-02-28T05:51:08;9.40;27.90
7700;DHT22;3892;47.794;19.126;2023-02-28T05:53:36;9.40;28.10
7700;DHT22;3892;47.794;19.126;2023-02-28T05:56:04;9.40;28.10
7700;DHT22;3892;47.794;19.126;2023-02-28T05:58:31;9.40;28.10
7700;DHT22;3892;47.794;19.126;2023-02-28T06:00:59;9.50;28.40
7700;DHT22;3892;47.794;19.126;2023-02-28T06:03:27;9.50;28.30
7700;DHT22;3892;47.794;19.126;2023-02-28T06:05:55;9.50;28.00
7700;DHT22;3892;47.794;19.126;2023-02-28T06:08:22;9.50;27.70
7700;DHT22;3892;47.794;19.126;2023-02-28T06:10:49;9.50;27.80
7700;DHT22;3892;47.794;19.126;2023-02-28T06:13:16;9.50;27.50
7700;DHT22;3892;47.794;19.126;2023-02-28T06:15:43;9.60;27.30
7700;DHT22;3892;47.794;19.126;2023-02-28T06:18:10;9.60;27.20
7700;DHT22;3892;47.794;19.126;2023-02-28T06:20:37;9.60;27.10
7700;DHT22;3892;47.794;19.126;2023-02-28T06:23:06;9.60;27.10
7700;DHT22;3892;47.794;19.126;2023-02-28T06:25:33;9.60;27.30
7700;DHT22;3892;47.794;19.126;2023-02-28T06:28:00;9.60;27.30
7700;DHT22;3892;47.794;19.126;2023-02-28T06:30:27;9.60;27.20
7700;DHT22;3892;47.794;19.126;2023-02-28T06:32:56;9.60;27.10
7700;DHT22;3892;47.794;19.126;2023-02-28T06:35:23;9.60;27.10
7700;DHT22;3892;47.794;19.126;2023-02-28T06:37:50;9.60;27.00
7700;DHT22;3892;47.794;19.126;2023-02-28T06:40:19;9.60;27.10
7700;DHT22;3892;47.794;19.126;2023-02-28T06:42:46;9.60;27.10
7700;DHT22;3892;47.794;19.126;2023-02-28T06:45:22;9.60;27.00
7700;DHT22;3892;47.794;19.126;2023-02-28T06:47:51;9.70;26.90
7700;DHT22;3892;47.794;19.126;2023-02-28T06:50:18;9.70;26.70
7700;DHT22;3892;47.794;19.126;2023-02-28T06:52:50;9.70;26.70
7700;DHT22;3892;47.794;19.126;2023-02-28T06:55:24;9.70;26.60
7700;DHT22;3892;47.794;19.126;2023-02-28T06:57:51;9.70;26.80
7700;DHT22;3892;47.794;19.126;2023-02-28T07:00:18;9.70;26.90
7700;DHT22;3892;47.794;19.126;2023-02-28T07:02:45;9.70;27.20
7700;DHT22;3892;47.794;19.126;2023-02-28T07:05:12;9.80;27.20
7700;DHT22;3892;47.794;19.126;2023-02-28T07:07:40;9.80;27.10
7700;DHT22;3892;47.794;19.126;2023-02-28T07:10:11;9.90;27.10
7700;DHT22;3892;47.794;19.126;2023-02-28T07:12:39;9.90;27.10
7700;DHT22;3892;47.794;19.126;2023-02-28T07:15:08;9.90;27.00
7700;DHT22;3892;47.794;19.126;2023-02-28T07:17:35;9.90;26.90
7700;DHT22;3892;47.794;19.126;2023-02-28T07:20:03;10.00;26.20
7700;DHT22;3892;47.794;19.126;2023-02-28T07:22:30;10.00;26.00
7700;DHT22;3892;47.794;19.126;2023-02-28T07:24:57;10.10;25.90
7700;DHT22;3892;47.794;19.126;2023-02-28T07:27:24;10.10;25.70
7700;DHT22;3892;47.794;19.126;2023-02-28T07:29:53;10.10;25.70
7700;DHT22;3892;47.794;19.126;2023-02-28T07:32:20;10.20;25.80
7700;DHT22;3892;47.794;19.126;2023-02-28T07:34:47;10.20;25.60
7700;DHT22;3892;47.794;19.126;2023-02-28T07:37:15;10.20;25.70
7700;DHT22;3892;47.794;19.126;2023-02-28T07:39:42;10.30;25.70
7700;DHT22;3892;47.794;19.126;2023-02-28T07:42:09;10.30;25.50
7700;DHT22;3892;47.794;19.126;2023-02-28T07:44:38;10.30;25.30
7700;DHT22;3892;47.794;19.126;2023-02-28T07:47:08;10.40;25.10
7700;DHT22;3892;47.794;19.126;2023-02-28T07:49:36;10.30;25.10
7700;DHT22;3892;47.794;19.126;2023-02-28T07:52:03;10.40;25.10
7700;DHT22;3892;47.794;19.126;2023-02-28T07:54:30;10.40;25.10
7700;DHT22;3892;47.794;19.126;2023-02-28T07:56:58;10.40;25.00
7700;DHT22;3892;47.794;19.126;2023-02-28T07:59:25;10.50;25.20
7700;DHT22;3892;47.794;19.126;2023-02-28T08:01:52;10.50;25.00
7700;DHT22;3892;47.794;19.126;2023-02-28T08:04:20;10.50;24.80
7700;DHT22;3892;47.794;19.126;2023-02-28T08:06:47;10.40;24.70
7700;DHT22;3892;47.794;19.126;2023-02-28T08:09:17;10.40;24.70
7700;DHT22;3892;47.794;19.126;2023-02-28T08:11:44;10.50;24.80
7700;DHT22;3892;47.794;19.126;2023-02-28T08:14:11;10.40;24.40
7700;DHT22;3892;47.794;19.126;2023-02-28T08:16:39;10.50;24.60
7700;DHT22;3892;47.794;19.126;2023-02-28T08:19:06;10.50;24.50
7700;DHT22;3892;47.794;19.126;2023-02-28T08:21:34;10.60;24.70
7700;DHT22;3892;47.794;19.126;2023-02-28T08:24:01;10.60;24.50
7700;DHT22;3892;47.794;19.126;2023-02-28T08:26:29;10.70;24.60
7700;DHT22;3892;47.794;19.126;2023-02-28T08:28:56;10.80;24.70
7700;DHT22;3892;47.794;19.126;2023-02-28T08:31:23;10.80;24.70
7700;DHT22;3892;47.794;19.126;2023-02-28T08:33:50;10.90;24.40
7700;DHT22;3892;47.794;19.126;2023-02-28T08:36:19;10.90;24.30
7700;DHT22;3892;47.794;19.126;2023-02-28T08:38:47;10.90;24.20
7700;DHT22;3892;47.794;19.126;2023-02-28T08:41:14;10.90;24.20
7700;DHT22;3892;47.794;19.126;2023-02-28T08:43:41;10.80;23.90
7700;DHT22;3892;47.794;19.126;2023-02-28T08:46:11;10.90;24.40
7700;DHT22;3892;47.794;19.126;2023-02-28T08:48:39;10.90;24.40
7700;DHT22;3892;47.794;19.126;2023-02-28T08:51:08;10.80;24.80
7700;DHT22;3892;47.794;19.126;2023-02-28T08:53:36;10.90;24.60
7700;DHT22;3892;47.794;19.126;2023-02-28T08:56:07;10.90;24.20
7700;DHT22;3892;47.794;19.126;2023-02-28T08:58:34;11.10;24.20
7700;DHT22;3892;47.794;19.126;2023-02-28T09:01:07;11.10;24.10
7700;DHT22;3892;47.794;19.126;2023-02-28T09:03:35;11.10;24.00
7700;DHT22;3892;47.794;19.126;2023-02-28T09:06:02;11.20;24.00
7700;DHT22;3892;47.794;19.126;2023-02-28T09:08:30;11.30;24.00
7700;DHT22;3892;47.794;19.126;2023-02-28T09:10:58;11.40;24.00
7700;DHT22;3892;47.794;19.126;2023-02-28T09:13:27;11.50;23.90
7700;DHT22;3892;47.794;19.126;2023-02-28T09:15:56;11.60;23.80
7700;DHT22;3892;47.794;19.126;2023-02-28T09:18:24;11.70;23.80
7700;DHT22;3892;47.794;19.126;2023-02-28T09:20:51;11.50;23.70
7700;DHT22;3892;47.794;19.126;2023-02-28T09:23:19;11.60;23.90
7700;DHT22;3892;47.794;19.126;2023-02-28T09:25:47;11.70;24.20
7700;DHT22;3892;47.794;19.126;2023-02-28T09:28:15;11.80;23.80
7700;DHT22;3892;47.794;19.126;2023-02-28T09:30:45;11.90;23.80
7700;DHT22;3892;47.794;19.126;2023-02-28T09:33:13;12.00;23.90
7700;DHT22;3892;47.794;19.126;2023-02-28T09:35:40;12.10;23.80
7700;DHT22;3892;47.794;19.126;2023-02-28T09:38:09;12.20;23.80
7700;DHT22;3892;47.794;19.126;2023-02-28T09:40:41;12.40;23.80
7700;DHT22;3892;47.794;19.126;2023-02-28T09:43:14;12.50;23.70
7700;DHT22;3892;47.794;19.126;2023-02-28T09:45:48;12.60;23.60
7700;DHT22;3892;47.794;19.126;2023-02-28T09:48:20;12.60;23.50
7700;DHT22;3892;47.794;19.126;2023-02-28T09:50:50;12.50;23.30
7700;DHT22;3892;47.794;19.126;2023-02-28T09:53:22;12.60;23.80
7700;DHT22;3892;47.794;19.126;2023-02-28T09:55:55;12.70;23.80
7700;DHT22;3892;47.794;19.126;2023-02-28T09:58:30;12.80;23.50
7700;DHT22;3892;47.794;19.126;2023-02-28T10:01:05;13.00;23.70
7700;DHT22;3892;47.794;19.126;2023-02-28T10:03:38;13.20;23.80
7700;DHT22;3892;47.794;19.126;2023-02-28T10:06:11;13.30;23.70
7700;DHT22;3892;47.794;19.126;2023-02-28T10:08:42;13.30;23.50
7700;DHT22;3892;47.794;19.126;2023-02-28T10:11:14;13.30;23.60
7700;DHT22;3892;47.794;19.126;2023-02-28T10:13:50;13.30;23.50
7700;DHT22;3892;47.794;19.126;2023-02-28T10:16:24;13.30;23.40
7700;DHT22;3892;47.794;19.126;2023-02-28T10:18:55;13.40;23.70
7700;DHT22;3892;47.794;19.126;2023-02-28T10:21:27;13.40;23.40
7700;DHT22;3892;47.794;19.126;2023-02-28T10:24:02;13.60;23.40
7700;DHT22;3892;47.794;19.126;2023-02-28T10:26:32;13.60;23.40
7700;DHT22;3892;47.794;19.126;2023-02-28T10:28:59;13.80;23.50
7700;DHT22;3892;47.794;19.126;2023-02-28T10:31:29;14.00;23.50
7700;DHT22;3892;47.794;19.126;2023-02-28T10:33:56;14.00;24.60
7700;DHT22;3892;47.794;19.126;2023-02-28T10:36:24;14.10;25.20
7700;DHT22;3892;47.794;19.126;2023-02-28T10:38:50;14.20;27.30
7700;DHT22;3892;47.794;19.126;2023-02-28T10:41:28;14.40;24.00
7700;DHT22;3892;47.794;19.126;2023-02-28T10:44:14;14.50;23.90
7700;DHT22;3892;47.794;19.126;2023-02-28T10:46:43;14.80;23.90
7700;DHT22;3892;47.794;19.126;2023-02-28T10:49:17;15.00;24.00
7700;DHT22;3892;47.794;19.126;2023-02-28T10:51:50;15.10;23.40
7700;DHT22;3892;47.794;19.126;2023-02-28T10:54:24;15.20;23.30
7700;DHT22;3892;47.794;19.126;2023-02-28T10:57:08;15.10;22.90
7700;DHT22;3892;47.794;19.126;2023-02-28T10:59:35;15.00;23.40
7700;DHT22;3892;47.794;19.126;2023-02-28T11:02:31;14.90;23.60
7700;DHT22;3892;47.794;19.126;2023-02-28T11:04:58;15.10;24.00
7700;DHT22;3892;47.794;19.126;2023-02-28T11:07:26;15.20;24.20
7700;DHT22;3892;47.794;19.126;2023-02-28T11:09:55;15.50;24.10
7700;DHT22;3892;47.794;19.126;2023-02-28T11:12:25;15.70;24.10
7700;DHT22;3892;47.794;19.126;2023-02-28T11:14:56;16.00;23.50
7700;DHT22;3892;47.794;19.126;2023-02-28T11:17:27;16.10;23.20
7700;DHT22;3892;47.794;19.126;2023-02-28T11:19:57;16.20;23.20
7700;DHT22;3892;47.794;19.126;2023-02-28T11:22:27;16.40;22.90
7700;DHT22;3892;47.794;19.126;2023-02-28T11:24:57;16.60;23.20
7700;DHT22;3892;47.794;19.126;2023-02-28T11:27:43;16.80;23.00
7700;DHT22;3892;47.794;19.126;2023-02-28T11:30:24;16.60;22.80
7700;DHT22;3892;47.794;19.126;2023-02-28T11:32:53;16.80;23.10
7700;DHT22;3892;47.794;19.126;2023-02-28T11:35:24;17.00;23.00
7700;DHT22;3892;47.794;19.126;2023-02-28T11:37:52;17.30;22.90
7700;DHT22;3892;47.794;19.126;2023-02-28T11:40:23;17.40;22.80
7700;DHT22;3892;47.794;19.126;2023-02-28T11:43:00;17.50;22.70
7700;DHT22;3892;47.794;19.126;2023-02-28T11:45:45;17.60;22.90
7700;DHT22;3892;47.794;19.126;2023-02-28T11:48:20;17.50;22.60
7700;DHT22;3892;47.794;19.126;2023-02-28T11:51:03;17.40;22.80
7700;DHT22;3892;47.794;19.126;2023-02-28T11:53:54;17.30;23.10
7700;DHT22;3892;47.794;19.126;2023-02-28T11:56:26;17.10;23.00
7700;DHT22;3892;47.794;19.126;2023-02-28T11:59:02;17.00;22.80
7700;DHT22;3892;47.794;19.126;2023-02-28T12:01:38;16.80;22.90
7700;DHT22;3892;47.794;19.126;2023-02-28T12:04:21;16.70;23.30
7700;DHT22;3892;47.794;19.126;2023-02-28T12:06:55;16.50;23.30
7700;DHT22;3892;47.794;19.126;2023-02-28T12:09:40;16.40;23.40
7700;DHT22;3892;47.794;19.126;2023-02-28T12:12:21;16.50;24.00
7700;DHT22;3892;47.794;19.126;2023-02-28T12:15:21;16.80;24.00
7700;DHT22;3892;47.794;19.126;2023-02-28T12:18:08;17.10;23.50
7700;DHT22;3892;47.794;19.126;2023-02-28T12:20:46;17.40;23.50
7700;DHT22;3892;47.794;19.126;2023-02-28T12:23:38;17.40;22.90
7700;DHT22;3892;47.794;19.126;2023-02-28T12:26:15;17.20;22.90
7700;DHT22;3892;47.794;19.126;2023-02-28T12:28:47;17.20;23.50
7700;DHT22;3892;47.794;19.126;2023-02-28T12:31:19;17.20;23.50
7700;DHT22;3892;47.794;19.126;2023-02-28T12:33:51;17.20;23.30
7700;DHT22;3892;47.794;19.126;2023-02-28T12:36:21;17.20;23.30
7700;DHT22;3892;47.794;19.126;2023-02-28T12:38:54;17.10;23.30
7700;DHT22;3892;47.794;19.126;2023-02-28T12:41:27;17.10;23.60
7700;DHT22;3892;47.794;19.126;2023-02-28T12:44:01;17.10;23.60
7700;DHT22;3892;47.794;19.126;2023-02-28T12:46:33;17.10;23.60
7700;DHT22;3892;47.794;19.126;2023-02-28T12:49:05;16.90;23.80
7700;DHT22;3892;47.794;19.126;2023-02-28T12:51:35;17.00;23.90
7700;DHT22;3892;47.794;19.126;2023-02-28T12:54:10;17.00;23.60
7700;DHT22;3892;47.794;19.126;2023-02-28T12:56:43;17.00;23.80
7700;DHT22;3892;47.794;19.126;2023-02-28T12:59:18;17.00;23.60
7700;DHT22;3892;47.794;19.126;2023-02-28T13:02:00;17.00;23.60
7700;DHT22;3892;47.794;19.126;2023-02-28T13:07:47;17.00;23.60
7700;DHT22;3892;47.794;19.126;2023-02-28T13:10:20;16.90;23.80
7700;DHT22;3892;47.794;19.126;2023-02-28T13:12:48;16.80;23.60
7700;DHT22;3892;47.794;19.126;2023-02-28T13:15:18;16.70;23.80
7700;DHT22;3892;47.794;19.126;2023-02-28T13:17:51;16.60;23.50
7700;DHT22;3892;47.794;19.126;2023-02-28T13:20:21;16.40;23.70
7700;DHT22;3892;47.794;19.126;2023-02-28T13:22:52;16.20;24.10
7700;DHT22;3892;47.794;19.126;2023-02-28T13:31:19;16.30;24.30
7700;DHT22;3892;47.794;19.126;2023-02-28T13:34:11;16.40;24.10
7700;DHT22;3892;47.794;19.126;2023-02-28T13:36:39;16.30;23.90
7700;DHT22;3892;47.794;19.126;2023-02-28T13:42:33;16.40;24.50
7700;DHT22;3892;47.794;19.126;2023-02-28T13:45:24;16.30;23.90
7700;DHT22;3892;47.794;19.126;2023-02-28T13:47:53;16.10;23.80
7700;DHT22;3892;47.794;19.126;2023-02-28T13:50:23;15.90;23.80
7700;DHT22;3892;47.794;19.126;2023-02-28T13:55:44;15.80;24.80
7700;DHT22;3892;47.794;19.126;2023-02-28T13:58:27;16.00;24.90
7700;DHT22;3892;47.794;19.126;2023-02-28T14:01:10;16.30;24.90
7700;DHT22;3892;47.794;19.126;2023-02-28T14:03:57;16.40;24.40
7700;DHT22;3892;47.794;19.126;2023-02-28T14:06:27;16.50;24.70
7700;DHT22;3892;47.794;19.126;2023-02-28T14:08:58;16.60;25.20
7700;DHT22;3892;47.794;19.126;2023-02-28T14:11:28;16.70;24.60
7700;DHT22;3892;47.794;19.126;2023-02-28T14:13:58;16.70;24.40
7700;DHT22;3892;47.794;19.126;2023-02-28T14:16:27;16.20;24.00
7700;DHT22;3892;47.794;19.126;2023-02-28T14:19:03;16.00;24.40
7700;DHT22;3892;47.794;19.126;2023-02-28T14:21:39;15.90;24.30
7700;DHT22;3892;47.794;19.126;2023-02-28T14:24:42;15.70;24.30
7700;DHT22;3892;47.794;19.126;2023-02-28T14:27:24;15.70;24.50
7700;DHT22;3892;47.794;19.126;2023-02-28T14:33:15;15.60;24.60
7700;DHT22;3892;47.794;19.126;2023-02-28T14:35:58;15.50;24.70
7700;DHT22;3892;47.794;19.126;2023-02-28T14:38:30;15.40;24.80
7700;DHT22;3892;47.794;19.126;2023-02-28T14:41:00;15.40;25.00
7700;DHT22;3892;47.794;19.126;2023-02-28T14:43:28;15.40;25.00
7700;DHT22;3892;47.794;19.126;2023-02-28T14:45:57;15.30;25.00
7700;DHT22;3892;47.794;19.126;2023-02-28T14:48:27;15.20;24.70
7700;DHT22;3892;47.794;19.126;2023-02-28T14:50:56;15.00;24.70
7700;DHT22;3892;47.794;19.126;2023-02-28T14:53:27;14.80;24.80
7700;DHT22;3892;47.794;19.126;2023-02-28T14:55:55;14.90;25.30
7700;DHT22;3892;47.794;19.126;2023-02-28T14:58:25;14.80;25.10
7700;DHT22;3892;47.794;19.126;2023-02-28T15:00:54;14.90;25.40
7700;DHT22;3892;47.794;19.126;2023-02-28T15:03:23;14.90;25.30
7700;DHT22;3892;47.794;19.126;2023-02-28T15:05:54;14.90;25.40
7700;DHT22;3892;47.794;19.126;2023-02-28T15:08:21;15.00;25.60
7700;DHT22;3892;47.794;19.126;2023-02-28T15:10:54;15.10;25.40
7700;DHT22;3892;47.794;19.126;2023-02-28T15:13:22;15.20;25.30
7700;DHT22;3892;47.794;19.126;2023-02-28T15:15:52;15.20;25.20
7700;DHT22;3892;47.794;19.126;2023-02-28T15:18:29;15.10;25.20
7700;DHT22;3892;47.794;19.126;2023-02-28T15:21:02;15.00;25.20
7700;DHT22;3892;47.794;19.126;2023-02-28T15:23:30;14.90;25.20
7700;DHT22;3892;47.794;19.126;2023-02-28T15:25:58;14.90;25.40
7700;DHT22;3892;47.794;19.126;2023-02-28T15:28:27;14.80;25.60
7700;DHT22;3892;47.794;19.126;2023-02-28T15:30:57;14.80;25.80
7700;DHT22;3892;47.794;19.126;2023-02-28T15:33:26;14.90;25.90
7700;DHT22;3892;47.794;19.126;2023-02-28T15:36:06;14.90;25.80
7700;DHT22;3892;47.794;19.126;2023-02-28T15:38:35;14.90;25.80
7700;DHT22;3892;47.794;19.126;2023-02-28T15:41:03;15.00;25.60
7700;DHT22;3892;47.794;19.126;2023-02-28T15:43:35;15.00;25.80
7700;DHT22;3892;47.794;19.126;2023-02-28T15:46:04;15.00;25.80
7700;DHT22;3892;47.794;19.126;2023-02-28T15:48:34;15.10;25.80
7700;DHT22;3892;47.794;19.126;2023-02-28T15:51:08;15.10;25.60
7700;DHT22;3892;47.794;19.126;2023-02-28T15:53:37;15.00;25.60
7700;DHT22;3892;47.794;19.126;2023-02-28T15:56:22;14.80;25.30
7700;DHT22;3892;47.794;19.126;2023-02-28T15:58:50;14.80;25.50
7700;DHT22;3892;47.794;19.126;2023-02-28T16:01:24;14.70;25.80
7700;DHT22;3892;47.794;19.126;2023-02-28T16:03:54;14.70;26.00
7700;DHT22;3892;47.794;19.126;2023-02-28T16:09:14;14.80;25.80
7700;DHT22;3892;47.794;19.126;2023-02-28T16:11:44;14.90;25.70
7700;DHT22;3892;47.794;19.126;2023-02-28T16:14:17;14.90;25.60
7700;DHT22;3892;47.794;19.126;2023-02-28T16:16:46;14.90;25.60
7700;DHT22;3892;47.794;19.126;2023-02-28T16:19:14;14.90;25.70
7700;DHT22;3892;47.794;19.126;2023-02-28T16:21:43;14.90;25.90
7700;DHT22;3892;47.794;19.126;2023-02-28T16:24:10;14.90;25.90
7700;DHT22;3892;47.794;19.126;2023-02-28T16:26:38;14.90;26.10
7700;DHT22;3892;47.794;19.126;2023-02-28T16:29:06;14.80;25.90
7700;DHT22;3892;47.794;19.126;2023-02-28T16:31:37;14.80;26.00
7700;DHT22;3892;47.794;19.126;2023-02-28T16:34:05;14.70;25.90
7700;DHT22;3892;47.794;19.126;2023-02-28T16:36:33;14.70;25.90
7700;DHT22;3892;47.794;19.126;2023-02-28T16:39:01;14.60;26.10
7700;DHT22;3892;47.794;19.126;2023-02-28T16:41:29;14.50;26.00
7700;DHT22;3892;47.794;19.126;2023-02-28T16:43:58;14.40;25.90